Time;durP1;ratioP1;P1;durP2;ratioP2;P2;SDS_P1;SDS_P2;PMS_P1;PMS_P2;Temp;Humidity;BMP_temperature;BMP_pressure;BME280_temperature;BME280_humidity;BME280_pressure;Samples;Min_cycle;Max_cycle;Signal;HPM_P1;HPM_P2
2023/08/10 00:01:18;;;;;;;0.43;0.43;;;22.10;77.80;;;;;;5027033;28;20526;-78
2023/08/10 00:03:44;;;;;;;0.90;0.52;;;22.10;77.70;;;;;;5027299;28;20037;-78
2023/08/10 00:06:10;;;;;;;0.85;0.50;;;22.20;77.80;;;;;;5027126;28;20463;-78
2023/08/10 00:08:36;;;;;;;0.50;0.50;;;22.20;77.70;;;;;;5026259;28;20589;-77
2023/08/10 00:11:02;;;;;;;0.50;0.50;;;22.10;77.80;;;;;;5027945;28;20089;-77
2023/08/10 00:13:27;;;;;;;1.58;0.40;;;22.20;77.70;;;;;;5024717;28;20042;-78
2023/08/10 00:15:53;;;;;;;0.47;0.47;;;22.10;77.60;;;;;;5026018;28;20045;-78
2023/08/10 00:18:19;;;;;;;0.40;0.40;;;22.10;77.70;;;;;;5026370;28;20854;-78
2023/08/10 00:20:44;;;;;;;0.60;0.60;;;22.10;77.60;;;;;;5025607;28;20045;-77
2023/08/10 00:23:10;;;;;;;0.57;0.57;;;22.20;77.80;;;;;;5026207;28;20549;-78
2023/08/10 00:25:36;;;;;;;0.50;0.50;;;22.10;77.70;;;;;;5010380;28;20049;-78
2023/08/10 00:28:02;;;;;;;0.52;0.52;;;22.10;77.60;;;;;;5025701;28;20071;-78
2023/08/10 00:30:28;;;;;;;0.60;0.60;;;22.10;77.70;;;;;;5026011;28;20512;-78
2023/08/10 00:32:54;;;;;;;0.82;0.82;;;22.10;77.70;;;;;;5026119;28;20049;-78
2023/08/10 00:35:20;;;;;;;0.65;0.65;;;22.10;77.50;;;;;;5024783;28;20030;-77
2023/08/10 00:37:46;;;;;;;0.50;0.50;;;22.10;77.60;;;;;;5024875;28;21218;-78
2023/08/10 00:40:12;;;;;;;1.73;0.50;;;22.10;77.60;;;;;;5024818;28;20030;-77
2023/08/10 00:42:39;;;;;;;0.50;0.50;;;22.10;77.70;;;;;;5024294;28;20042;-77
2023/08/10 00:45:05;;;;;;;0.75;0.40;;;22.10;77.60;;;;;;5025398;28;20508;-77
2023/08/10 00:47:30;;;;;;;0.52;0.52;;;22.10;77.60;;;;;;5027440;28;20057;-77
2023/08/10 00:49:56;;;;;;;0.40;0.40;;;22.10;77.70;;;;;;5023646;28;20048;-77
2023/08/10 00:52:21;;;;;;;0.68;0.68;;;22.10;77.60;;;;;;5025134;28;20038;-77
2023/08/10 00:54:47;;;;;;;0.68;0.68;;;22.10;77.60;;;;;;5022212;28;20499;-78
2023/08/10 00:57:12;;;;;;;0.50;0.50;;;22.10;77.60;;;;;;5023866;28;20037;-77
2023/08/10 00:59:38;;;;;;;0.55;0.55;;;22.10;77.60;;;;;;5025076;28;20057;-77
2023/08/10 01:02:04;;;;;;;0.70;0.70;;;22.10;77.50;;;;;;5023232;28;20045;-78
2023/08/10 01:04:30;;;;;;;0.50;0.50;;;22.10;77.60;;;;;;5026027;28;20049;-78
2023/08/10 01:07:20;;;;;;;0.50;0.50;;;22.10;77.60;;;;;;5026413;28;20500;-78
2023/08/10 01:09:55;;;;;;;0.40;0.40;;;22.10;77.50;;;;;;5016012;28;20076;-78
2023/08/10 01:12:37;;;;;;;0.50;0.50;;;22.10;77.40;;;;;;5024195;28;20049;-77
2023/08/10 01:15:19;;;;;;;0.50;0.50;;;22.10;77.40;;;;;;5023542;28;20088;-77
2023/08/10 01:17:51;;;;;;;0.40;0.40;;;22.10;77.50;;;;;;5027280;28;20045;-78
2023/08/10 01:20:21;;;;;;;0.50;0.50;;;22.10;77.40;;;;;;4988784;28;20046;-77
2023/08/10 01:23:24;;;;;;;0.40;0.40;;;22.10;77.40;;;;;;5025552;28;20040;-78
2023/08/10 01:25:50;;;;;;;0.75;0.40;;;22.10;77.40;;;;;;5024415;28;20050;-78
2023/08/10 01:28:15;;;;;;;0.40;0.40;;;22.10;77.40;;;;;;5022950;28;20040;-78
2023/08/10 01:30:41;;;;;;;0.40;0.40;;;22.10;77.30;;;;;;5026093;28;20049;-78
2023/08/10 01:33:08;;;;;;;0.50;0.50;;;22.10;77.40;;;;;;5023858;28;20055;-77
2023/08/10 01:35:36;;;;;;;0.50;0.50;;;22.10;77.30;;;;;;5021450;28;20121;-78
2023/08/10 01:38:02;;;;;;;0.50;0.50;;;22.10;78.20;;;;;;5023435;28;20049;-77
2023/08/10 01:40:28;;;;;;;0.40;0.40;;;22.10;77.30;;;;;;5025982;28;20045;-78
2023/08/10 01:42:54;;;;;;;0.40;0.40;;;22.10;77.20;;;;;;5026624;28;20068;-78
2023/08/10 01:45:19;;;;;;;0.43;0.43;;;22.10;77.30;;;;;;5024752;28;20403;-78
2023/08/10 01:48:05;;;;;;;0.45;0.45;;;22.10;77.30;;;;;;5027014;28;20129;-78
2023/08/10 01:50:33;;;;;;;0.50;0.47;;;22.10;77.30;;;;;;5019609;28;20512;-78
2023/08/10 01:53:02;;;;;;;0.38;0.38;;;22.10;77.30;;;;;;5020208;28;20056;-78
2023/08/10 01:55:28;;;;;;;0.40;0.40;;;22.10;77.30;;;;;;5015905;28;20053;-78
2023/08/10 01:57:54;;;;;;;0.50;0.50;;;22.00;77.20;;;;;;5005055;28;20046;-78
2023/08/10 02:00:19;;;;;;;0.68;0.68;;;22.10;77.30;;;;;;5007705;28;20055;-77
2023/08/10 02:02:45;;;;;;;0.50;0.50;;;22.00;77.20;;;;;;5023505;28;20420;-78
2023/08/10 02:05:12;;;;;;;0.68;0.50;;;22.00;77.10;;;;;;5022756;28;20176;-78
2023/08/10 02:07:37;;;;;;;0.50;0.50;;;22.10;77.10;;;;;;5020807;28;20172;-78
2023/08/10 02:10:03;;;;;;;0.40;0.40;;;22.10;77.20;;;;;;5022512;28;20132;-77
2023/08/10 02:12:29;;;;;;;0.65;0.65;;;22.10;77.10;;;;;;5024510;28;20108;-77
2023/08/10 02:14:58;;;;;;;0.50;0.50;;;22.00;77.10;;;;;;5023031;28;20049;-78
2023/08/10 02:17:25;;;;;;;0.52;0.52;;;22.00;77.10;;;;;;5022810;28;20046;-78
2023/08/10 02:19:50;;;;;;;0.90;0.70;;;22.10;77.20;;;;;;5021119;28;20136;-78
2023/08/10 02:22:16;;;;;;;0.45;0.45;;;22.00;77.10;;;;;;5023982;28;20140;-78
2023/08/10 02:24:42;;;;;;;0.55;0.50;;;22.10;77.10;;;;;;5025169;28;20191;-78
2023/08/10 02:27:07;;;;;;;0.40;0.40;;;22.00;77.10;;;;;;5023652;28;20044;-78
2023/08/10 02:29:33;;;;;;;0.68;0.68;;;22.10;77.10;;;;;;5024845;28;20140;-78
2023/08/10 02:32:00;;;;;;;0.50;0.50;;;22.10;77.10;;;;;;5024299;28;20282;-78
2023/08/10 02:34:26;;;;;;;0.50;0.50;;;22.10;77.10;;;;;;5020406;28;20053;-78
2023/08/10 02:36:51;;;;;;;0.60;0.60;;;22.10;77.10;;;;;;5022482;28;20041;-77
2023/08/10 02:39:17;;;;;;;1.08;0.60;;;22.10;77.00;;;;;;5022780;28;20411;-77
2023/08/10 02:41:42;;;;;;;0.50;0.50;;;22.10;77.00;;;;;;5026052;28;20095;-77
2023/08/10 02:44:08;;;;;;;0.65;0.65;;;22.10;76.90;;;;;;5024774;28;20048;-77
2023/08/10 02:46:34;;;;;;;0.85;0.85;;;22.10;77.00;;;;;;5026391;28;20571;-78
2023/08/10 02:48:59;;;;;;;1.83;0.75;;;22.10;77.10;;;;;;5024149;28;20071;-78
2023/08/10 02:51:25;;;;;;;0.60;0.60;;;22.10;77.00;;;;;;5024462;28;20037;-78
2023/08/10 02:53:50;;;;;;;1.00;0.50;;;22.10;76.90;;;;;;5024852;28;20518;-77
2023/08/10 02:56:16;;;;;;;0.75;0.50;;;22.10;76.90;;;;;;5023361;28;20644;-78
2023/08/10 02:58:41;;;;;;;1.38;0.60;;;22.10;76.90;;;;;;5023272;28;20060;-78
2023/08/10 03:01:07;;;;;;;0.45;0.45;;;22.10;76.80;;;;;;5022648;28;20431;-77
2023/08/10 03:03:33;;;;;;;0.50;0.50;;;22.10;76.80;;;;;;5024473;28;20041;-78
2023/08/10 03:05:59;;;;;;;0.50;0.50;;;22.10;76.80;;;;;;5024607;28;20041;-77
2023/08/10 03:08:25;;;;;;;0.70;0.50;;;22.10;76.70;;;;;;5025008;28;20045;-78
2023/08/10 03:10:51;;;;;;;1.00;0.90;;;22.10;76.70;;;;;;5019863;28;20068;-77
2023/08/10 03:13:16;;;;;;;0.77;0.77;;;22.10;76.60;;;;;;5021691;28;20038;-78
2023/08/10 03:15:42;;;;;;;0.50;0.50;;;22.10;76.60;;;;;;5020166;28;20112;-78
2023/08/10 03:18:08;;;;;;;0.50;0.50;;;22.10;77.40;;;;;;5026298;28;20446;-77
2023/08/10 03:20:33;;;;;;;0.40;0.40;;;22.10;76.60;;;;;;5029144;28;20583;-78
2023/08/10 03:22:59;;;;;;;0.50;0.50;;;22.10;76.60;;;;;;5028806;28;20037;-78
2023/08/10 03:25:24;;;;;;;0.93;0.60;;;22.10;77.30;;;;;;5027951;28;21167;-78
2023/08/10 03:27:50;;;;;;;0.60;0.60;;;22.10;76.50;;;;;;5025679;28;20052;-78
2023/08/10 03:30:15;;;;;;;0.50;0.50;;;22.10;76.40;;;;;;5025656;28;20049;-78
2023/08/10 03:32:41;;;;;;;0.50;0.50;;;22.20;76.50;;;;;;5028567;28;20130;-77
2023/08/10 03:35:07;;;;;;;0.50;0.50;;;22.10;76.50;;;;;;5005920;28;20512;-77
2023/08/10 03:37:33;;;;;;;0.43;0.43;;;22.10;76.50;;;;;;5027865;28;20045;-78
2023/08/10 03:39:59;;;;;;;0.73;0.73;;;22.10;76.50;;;;;;5025605;28;20049;-77
2023/08/10 03:42:24;;;;;;;0.68;0.60;;;22.10;76.50;;;;;;5025020;28;20037;-77
2023/08/10 03:44:50;;;;;;;0.90;0.60;;;22.20;76.50;;;;;;5027514;28;20096;-78
2023/08/10 03:47:15;;;;;;;0.70;0.70;;;22.20;76.50;;;;;;5027175;28;20041;-78
2023/08/10 03:49:41;;;;;;;0.40;0.40;;;22.10;76.40;;;;;;5026227;28;20055;-78
2023/08/10 03:52:06;;;;;;;0.43;0.43;;;22.20;76.50;;;;;;5027714;28;20044;-77
2023/08/10 03:54:32;;;;;;;4.10;0.60;;;22.20;76.40;;;;;;5025831;28;20050;-78
2023/08/10 03:56:58;;;;;;;0.70;0.70;;;22.20;76.30;;;;;;5027237;28;20041;-78
2023/08/10 03:59:23;;;;;;;0.40;0.35;;;22.10;76.20;;;;;;5026880;28;20052;-77
2023/08/10 04:01:49;;;;;;;0.50;0.50;;;22.20;76.20;;;;;;5026865;28;20067;-78
2023/08/10 04:04:14;;;;;;;0.40;0.40;;;22.10;76.10;;;;;;5024775;28;20521;-77
2023/08/10 04:06:40;;;;;;;0.50;0.50;;;22.10;76.10;;;;;;5026775;28;20065;-78
2023/08/10 04:09:06;;;;;;;0.50;0.50;;;22.20;76.20;;;;;;5028332;28;20099;-78
2023/08/10 04:11:32;;;;;;;0.63;0.63;;;22.10;76.00;;;;;;5027703;28;20049;-78
2023/08/10 04:13:57;;;;;;;0.73;0.70;;;22.20;76.00;;;;;;5024937;28;20121;-77
2023/08/10 04:16:23;;;;;;;0.47;0.47;;;22.10;76.00;;;;;;5027396;28;20372;-77
2023/08/10 04:18:48;;;;;;;0.50;0.50;;;22.10;76.00;;;;;;5026350;28;20040;-77
2023/08/10 04:21:14;;;;;;;0.52;0.52;;;22.10;76.00;;;;;;5026752;28;20124;-77
2023/08/10 04:23:40;;;;;;;0.70;0.40;;;22.10;76.30;;;;;;5026007;28;20046;-78
2023/08/10 04:26:07;;;;;;;0.57;0.57;;;22.10;76.60;;;;;;5024750;28;20586;-78
2023/08/10 04:28:33;;;;;;;0.73;0.73;;;22.20;77.80;;;;;;5025479;28;20065;-78
2023/08/10 04:30:58;;;;;;;0.63;0.63;;;22.10;79.20;;;;;;5024200;28;20072;-78
2023/08/10 04:33:24;;;;;;;0.50;0.50;;;22.10;78.60;;;;;;5020637;28;20391;-78
2023/08/10 04:35:50;;;;;;;0.75;0.50;;;22.20;78.70;;;;;;5027515;28;20518;-78
2023/08/10 04:38:16;;;;;;;0.60;0.60;;;22.20;78.50;;;;;;5005342;28;20132;-77
2023/08/10 04:40:41;;;;;;;0.57;0.50;;;22.20;78.40;;;;;;5008265;28;20041;-78
2023/08/10 04:43:08;;;;;;;0.88;0.60;;;22.20;78.20;;;;;;5027040;28;20584;-78
2023/08/10 04:45:34;;;;;;;0.43;0.43;;;22.20;78.00;;;;;;5009241;28;20033;-78
2023/08/10 04:47:59;;;;;;;0.75;0.40;;;22.20;77.80;;;;;;5026618;28;20033;-78
2023/08/10 04:50:25;;;;;;;1.05;0.47;;;22.20;77.70;;;;;;5025370;28;20052;-78
2023/08/10 04:52:51;;;;;;;0.57;0.57;;;22.20;77.50;;;;;;5025331;28;20037;-77
2023/08/10 04:55:17;;;;;;;0.43;0.43;;;22.20;77.40;;;;;;5024815;28;20042;-78
2023/08/10 04:57:43;;;;;;;0.52;0.52;;;22.20;77.30;;;;;;5023943;28;20565;-78
2023/08/10 05:00:12;;;;;;;0.47;0.47;;;22.20;77.00;;;;;;5025554;28;20037;-78
2023/08/10 05:02:38;;;;;;;0.50;0.50;;;22.20;77.00;;;;;;5023601;28;20052;-75
2023/08/10 05:05:04;;;;;;;0.65;0.60;;;22.10;76.60;;;;;;4677347;28;10000517;-76
2023/08/10 05:07:31;;;;;;;0.40;0.40;;;21.70;78.30;;;;;;5001998;28;20041;-76
2023/08/10 05:09:57;;;;;;;0.43;0.43;;;21.40;79.50;;;;;;5026752;28;20045;-76
2023/08/10 05:12:23;;;;;;;0.60;0.60;;;21.30;79.90;;;;;;5018698;28;20071;-76
2023/08/10 05:14:48;;;;;;;0.52;0.52;;;21.20;80.00;;;;;;4673112;28;9999794;-75
2023/08/10 05:17:14;;;;;;;1.15;0.55;;;21.10;80.50;;;;;;5021718;28;20060;-76
2023/08/10 05:19:39;;;;;;;0.70;0.70;;;21.00;81.20;;;;;;5021754;28;20068;-75
2023/08/10 05:22:05;;;;;;;0.50;0.50;;;20.90;81.20;;;;;;5021528;28;20083;-76
2023/08/10 05:24:32;;;;;;;1.55;0.40;;;21.00;81.00;;;;;;5022336;28;20414;-75
2023/08/10 05:26:58;;;;;;;0.70;0.70;;;20.90;81.00;;;;;;5023307;28;20038;-75
2023/08/10 05:29:24;;;;;;;0.82;0.50;;;20.90;80.90;;;;;;5021409;28;20442;-75
2023/08/10 05:31:49;;;;;;;0.50;0.50;;;20.90;81.00;;;;;;5019835;28;20060;-76
2023/08/10 05:34:15;;;;;;;0.40;0.40;;;20.90;80.60;;;;;;5020724;28;20108;-76
2023/08/10 05:36:40;;;;;;;0.60;0.60;;;20.90;80.40;;;;;;5022776;28;20430;-75
2023/08/10 05:39:06;;;;;;;0.40;0.40;;;20.90;80.60;;;;;;5021832;28;20045;-75
2023/08/10 05:41:31;;;;;;;0.60;0.57;;;20.80;80.90;;;;;;5004012;28;20095;-75
2023/08/10 05:43:57;;;;;;;1.02;0.65;;;20.80;81.00;;;;;;5020804;28;20166;-76
2023/08/10 05:46:22;;;;;;;0.40;0.40;;;20.70;81.40;;;;;;5021448;28;20056;-75
2023/08/10 05:48:49;;;;;;;0.40;0.40;;;20.70;81.10;;;;;;5020902;28;20597;-75
2023/08/10 05:51:14;;;;;;;0.55;0.55;;;20.80;81.10;;;;;;5020898;28;20071;-75
2023/08/10 05:53:41;;;;;;;0.50;0.50;;;20.70;81.40;;;;;;5022578;28;20089;-75
2023/08/10 05:56:06;;;;;;;0.60;0.60;;;20.70;81.80;;;;;;5019784;28;20049;-76
2023/08/10 05:58:32;;;;;;;0.82;0.70;;;20.60;81.60;;;;;;5021728;28;20529;-75
2023/08/10 06:00:57;;;;;;;0.85;0.55;;;20.60;81.70;;;;;;5019326;28;20076;-76
2023/08/10 06:03:23;;;;;;;0.80;0.47;;;20.60;81.30;;;;;;5021617;28;20041;-76
2023/08/10 06:05:49;;;;;;;0.80;0.50;;;20.70;80.80;;;;;;5022505;28;20049;-75
2023/08/10 06:08:14;;;;;;;0.50;0.50;;;20.70;81.10;;;;;;5021660;28;20059;-75
2023/08/10 06:10:40;;;;;;;0.43;0.43;;;20.60;81.40;;;;;;5019174;28;20169;-75
2023/08/10 06:13:06;;;;;;;0.30;0.30;;;20.50;82.00;;;;;;5019507;28;20507;-76
2023/08/10 06:15:32;;;;;;;0.40;0.40;;;20.60;81.90;;;;;;5017207;28;20538;-77
2023/08/10 06:17:58;;;;;;;3.53;0.80;;;20.50;82.10;;;;;;5017360;28;20041;-76
2023/08/10 06:20:26;;;;;;;0.45;0.45;;;20.70;82.00;;;;;;5016167;28;20076;-76
2023/08/10 06:22:53;;;;;;;0.82;0.70;;;20.70;81.80;;;;;;5017884;28;20594;-75
2023/08/10 06:25:19;;;;;;;0.50;0.50;;;20.70;81.30;;;;;;5017153;28;20770;-76
2023/08/10 06:27:47;;;;;;;0.40;0.40;;;20.70;81.50;;;;;;5019489;28;20045;-76
2023/08/10 06:30:13;;;;;;;1.05;0.60;;;20.70;81.60;;;;;;4985012;28;20076;-75
2023/08/10 06:32:39;;;;;;;0.52;0.52;;;20.70;80.80;;;;;;5017613;28;20132;-76
2023/08/10 06:35:05;;;;;;;0.40;0.40;;;20.70;81.40;;;;;;5030733;28;20402;-76
2023/08/10 06:37:32;;;;;;;1.98;0.70;;;20.70;81.80;;;;;;5020398;28;20060;-75
2023/08/10 06:39:58;;;;;;;1.33;0.60;;;20.60;81.70;;;;;;5005231;28;20033;-76
2023/08/10 06:42:23;;;;;;;0.50;0.50;;;20.60;81.40;;;;;;5002103;28;20045;-76
2023/08/10 06:44:49;;;;;;;0.40;0.40;;;20.70;81.30;;;;;;5024261;28;20049;-75
2023/08/10 06:47:14;;;;;;;0.50;0.50;;;20.90;80.30;;;;;;5018443;28;20528;-78
2023/08/10 06:49:40;;;;;;;0.50;0.50;;;21.10;79.80;;;;;;5017572;28;20069;-77
2023/08/10 06:52:06;;;;;;;0.40;0.40;;;21.10;79.50;;;;;;5019160;28;20050;-77
2023/08/10 06:54:31;;;;;;;0.85;0.40;;;21.20;79.40;;;;;;5016386;28;20188;-76
2023/08/10 06:56:57;;;;;;;0.43;0.43;;;21.20;79.10;;;;;;5020765;28;20142;-77
2023/08/10 06:59:23;;;;;;;0.40;0.40;;;21.40;78.90;;;;;;5019646;28;20132;-77
2023/08/10 07:01:48;;;;;;;0.90;0.40;;;21.30;78.80;;;;;;5002517;28;20561;-77
2023/08/10 07:04:14;;;;;;;0.52;0.52;;;21.30;78.90;;;;;;5020520;28;20061;-76
2023/08/10 07:06:40;;;;;;;0.88;0.60;;;21.40;78.80;;;;;;5018828;28;20049;-77
2023/08/10 07:09:06;;;;;;;0.55;0.55;;;21.40;79.40;;;;;;5019458;28;20495;-78
2023/08/10 07:11:34;;;;;;;0.60;0.60;;;21.40;78.50;;;;;;5016940;28;20044;-77
2023/08/10 07:14:01;;;;;;;0.60;0.60;;;21.40;78.50;;;;;;5001541;28;20049;-77
2023/08/10 07:16:26;;;;;;;0.60;0.60;;;21.40;78.50;;;;;;5018262;28;20128;-77
2023/08/10 07:18:52;;;;;;;0.55;0.55;;;21.40;78.60;;;;;;5020132;28;20172;-77
2023/08/10 07:21:17;;;;;;;0.52;0.52;;;21.40;78.60;;;;;;5019683;28;20111;-77
2023/08/10 07:23:43;;;;;;;0.50;0.50;;;21.40;78.70;;;;;;5020660;28;20048;-77
2023/08/10 07:26:08;;;;;;;0.40;0.40;;;21.50;78.80;;;;;;5020547;28;20037;-78
2023/08/10 07:28:35;;;;;;;0.60;0.60;;;21.40;78.40;;;;;;5023264;28;20036;-77
2023/08/10 07:31:00;;;;;;;0.65;0.65;;;21.50;79.10;;;;;;5018348;28;20053;-78
2023/08/10 07:33:27;;;;;;;1.13;0.52;;;21.50;78.10;;;;;;5023212;28;20381;-77
2023/08/10 07:35:53;;;;;;;0.50;0.50;;;21.50;78.20;;;;;;5007158;28;21332;-78
2023/08/10 07:38:19;;;;;;;0.68;0.50;;;21.50;78.20;;;;;;5024263;28;20038;-79
2023/08/10 07:40:45;;;;;;;0.68;0.65;;;21.50;77.90;;;;;;5019352;28;20056;-76
2023/08/10 07:43:10;;;;;;;0.30;0.30;;;21.60;77.80;;;;;;5022117;28;20092;-77
2023/08/10 07:45:36;;;;;;;0.57;0.57;;;21.60;78.10;;;;;;5023509;28;20037;-76
2023/08/10 07:48:02;;;;;;;0.68;0.60;;;21.60;77.60;;;;;;5024382;28;20569;-77
2023/08/10 07:50:28;;;;;;;0.50;0.50;;;21.60;77.40;;;;;;5021611;28;20049;-76
2023/08/10 07:52:53;;;;;;;0.47;0.47;;;21.60;77.30;;;;;;5025232;28;20456;-77
2023/08/10 07:55:19;;;;;;;0.50;0.50;;;21.60;77.20;;;;;;5024503;28;20457;-77
2023/08/10 07:57:45;;;;;;;0.73;0.40;;;21.60;77.10;;;;;;5023056;28;20046;-77
2023/08/10 08:00:11;;;;;;;0.40;0.40;;;21.70;77.20;;;;;;5024383;28;20075;-77
2023/08/10 08:02:37;;;;;;;0.60;0.60;;;21.70;77.10;;;;;;5023120;28;20037;-77
2023/08/10 08:05:03;;;;;;;0.47;0.47;;;21.70;77.00;;;;;;5009972;28;20057;-76
2023/08/10 08:07:30;;;;;;;0.38;0.38;;;21.70;77.00;;;;;;5024062;28;20096;-77
2023/08/10 08:09:57;;;;;;;0.57;0.57;;;21.70;76.90;;;;;;5027511;28;20085;-77
2023/08/10 08:12:23;;;;;;;0.50;0.50;;;21.70;76.90;;;;;;5027639;28;20056;-76
2023/08/10 08:14:49;;;;;;;0.32;0.32;;;21.70;76.90;;;;;;5028235;28;20507;-77
2023/08/10 08:17:14;;;;;;;0.50;0.50;;;21.70;76.90;;;;;;5027778;28;20499;-77
2023/08/10 08:19:40;;;;;;;0.60;0.30;;;21.70;76.70;;;;;;5026153;28;20060;-76
2023/08/10 08:22:07;;;;;;;0.30;0.30;;;21.70;76.60;;;;;;5026296;28;20462;-77
2023/08/10 08:24:32;;;;;;;0.40;0.40;;;21.80;76.70;;;;;;5027239;28;20045;-77
2023/08/10 08:26:58;;;;;;;0.40;0.40;;;21.80;76.70;;;;;;5026129;28;20506;-77
2023/08/10 08:29:23;;;;;;;0.45;0.40;;;21.80;76.70;;;;;;5026932;28;20521;-77
2023/08/10 08:31:49;;;;;;;0.30;0.30;;;21.70;76.60;;;;;;5010006;28;20045;-77
2023/08/10 08:34:15;;;;;;;0.30;0.30;;;21.80;76.60;;;;;;5024532;28;20046;-77
2023/08/10 08:36:41;;;;;;;0.40;0.40;;;21.80;76.60;;;;;;5025875;28;20045;-77
2023/08/10 08:39:07;;;;;;;0.40;0.40;;;21.80;76.50;;;;;;5027654;28;20049;-77
2023/08/10 08:41:36;;;;;;;0.32;0.32;;;21.70;76.40;;;;;;5026382;28;20046;-77
2023/08/10 08:44:03;;;;;;;0.50;0.40;;;21.80;76.40;;;;;;5040302;28;20056;-76
2023/08/10 08:46:29;;;;;;;0.47;0.47;;;21.80;76.40;;;;;;5008991;28;20037;-77
2023/08/10 08:48:55;;;;;;;0.50;0.50;;;21.80;76.40;;;;;;5025175;28;20053;-77
2023/08/10 08:51:20;;;;;;;0.60;0.60;;;21.80;76.30;;;;;;5028000;28;20099;-77
2023/08/10 08:53:46;;;;;;;0.50;0.50;;;21.80;76.30;;;;;;5027710;28;20119;-77
2023/08/10 08:56:11;;;;;;;0.40;0.40;;;21.80;76.20;;;;;;5009670;28;20045;-77
2023/08/10 08:58:37;;;;;;;0.30;0.30;;;21.80;76.10;;;;;;5026064;28;20128;-77
2023/08/10 09:01:03;;;;;;;0.40;0.40;;;21.90;76.10;;;;;;5027152;28;20057;-77
2023/08/10 09:03:28;;;;;;;0.30;0.30;;;21.90;76.00;;;;;;5025315;28;20412;-77
2023/08/10 09:05:54;;;;;;;0.30;0.30;;;21.90;75.90;;;;;;5028316;28;20092;-77
2023/08/10 09:08:20;;;;;;;0.20;0.20;;;21.90;76.00;;;;;;5025811;28;20536;-77
2023/08/10 09:10:46;;;;;;;0.30;0.30;;;21.90;75.80;;;;;;5025661;28;20554;-77
2023/08/10 09:13:15;;;;;;;0.30;0.30;;;21.90;75.80;;;;;;5026644;28;20415;-77
2023/08/10 09:15:41;;;;;;;0.40;0.40;;;21.90;75.70;;;;;;5024534;28;20095;-77
2023/08/10 09:18:07;;;;;;;1.38;0.40;;;21.90;75.60;;;;;;5027033;28;20049;-77
2023/08/10 09:20:32;;;;;;;0.35;0.35;;;21.90;75.70;;;;;;5025640;28;20057;-76
2023/08/10 09:22:58;;;;;;;0.32;0.32;;;21.90;75.50;;;;;;5025409;28;20065;-77
2023/08/10 09:25:24;;;;;;;0.30;0.30;;;21.90;75.50;;;;;;5026256;28;20415;-77
2023/08/10 09:27:50;;;;;;;0.30;0.30;;;21.90;75.60;;;;;;5023123;28;20053;-77
2023/08/10 09:30:16;;;;;;;0.30;0.30;;;22.00;75.60;;;;;;5027250;28;20049;-77
2023/08/10 09:32:42;;;;;;;0.50;0.40;;;22.00;75.50;;;;;;5008686;28;20389;-77
2023/08/10 09:35:18;;;;;;;0.60;0.43;;;22.00;75.50;;;;;;5025890;28;20033;-77
2023/08/10 09:37:46;;;;;;;0.45;0.45;;;22.00;75.40;;;;;;5025064;28;20041;-77
2023/08/10 09:40:15;;;;;;;0.30;0.30;;;22.00;75.30;;;;;;5010073;28;20037;-77
2023/08/10 09:42:41;;;;;;;0.47;0.47;;;22.00;75.20;;;;;;5020957;28;20059;-77
2023/08/10 09:45:10;;;;;;;0.30;0.30;;;22.00;75.20;;;;;;5024944;28;20402;-77
2023/08/10 09:47:42;;;;;;;0.30;0.30;;;22.10;75.20;;;;;;5026153;28;20136;-76
2023/08/10 09:50:09;;;;;;;0.47;0.47;;;22.00;75.00;;;;;;5026604;28;20554;-77
2023/08/10 09:52:36;;;;;;;0.30;0.30;;;22.10;75.10;;;;;;5024157;28;20044;-77
2023/08/10 09:55:02;;;;;;;0.32;0.32;;;22.00;75.10;;;;;;5009856;28;20491;-77
2023/08/10 09:57:27;;;;;;;0.40;0.40;;;22.10;75.10;;;;;;5026234;28;20543;-77
2023/08/10 09:59:53;;;;;;;0.40;0.40;;;22.10;75.10;;;;;;5025523;28;20038;-77
2023/08/10 10:02:22;;;;;;;0.47;0.47;;;22.10;74.90;;;;;;5025078;28;20041;-77
2023/08/10 10:04:48;;;;;;;0.35;0.35;;;22.10;74.90;;;;;;5024521;28;20121;-77
2023/08/10 10:07:14;;;;;;;0.25;0.25;;;22.10;74.90;;;;;;5008914;28;20132;-77
2023/08/10 10:09:43;;;;;;;0.40;0.40;;;22.10;74.80;;;;;;5024688;28;20400;-77
2023/08/10 10:12:13;;;;;;;0.50;0.50;;;22.10;74.80;;;;;;5025142;28;20068;-77
2023/08/10 10:14:45;;;;;;;0.35;0.35;;;22.10;74.80;;;;;;5023238;28;20038;-77
2023/08/10 10:17:11;;;;;;;0.30;0.30;;;22.20;74.90;;;;;;5021075;28;20120;-77
2023/08/10 10:19:37;;;;;;;0.40;0.40;;;22.10;74.80;;;;;;5024588;28;20071;-77
2023/08/10 10:22:03;;;;;;;0.35;0.28;;;22.20;74.80;;;;;;5007421;28;20037;-77
2023/08/10 10:24:31;;;;;;;0.40;0.40;;;22.10;74.70;;;;;;5025177;28;20065;-77
2023/08/10 10:27:11;;;;;;;0.30;0.30;;;22.20;74.70;;;;;;5025763;28;20446;-77
2023/08/10 10:29:49;;;;;;;0.38;0.38;;;22.10;74.60;;;;;;5026153;28;20526;-77
2023/08/10 10:32:15;;;;;;;0.30;0.30;;;22.20;74.70;;;;;;5026278;28;20113;-77
2023/08/10 10:34:41;;;;;;;0.20;0.20;;;22.20;74.70;;;;;;5023210;28;20048;-77
2023/08/10 10:37:18;;;;;;;0.50;0.50;;;22.20;74.70;;;;;;5023841;28;20045;-77
2023/08/10 10:39:49;;;;;;;0.40;0.40;;;22.20;74.70;;;;;;5023838;28;20049;-77
2023/08/10 10:42:16;;;;;;;0.35;0.32;;;22.20;74.70;;;;;;5023872;28;20040;-77
2023/08/10 10:45:00;;;;;;;0.45;0.45;;;22.20;74.60;;;;;;5024798;28;20045;-77
2023/08/10 10:47:48;;;;;;;0.32;0.32;;;22.20;74.60;;;;;;5025790;28;20037;-77
2023/08/10 10:50:18;;;;;;;0.28;0.28;;;22.20;74.60;;;;;;5023660;28;20057;-77
2023/08/10 10:52:57;;;;;;;0.30;0.30;;;22.30;74.60;;;;;;5023682;28;20041;-77
2023/08/10 10:55:24;;;;;;;0.30;0.30;;;22.20;74.50;;;;;;5024028;28;20045;-77
2023/08/10 10:57:49;;;;;;;0.40;0.40;;;22.20;74.60;;;;;;5022986;28;20103;-77
2023/08/10 11:00:19;;;;;;;0.40;0.40;;;22.20;74.50;;;;;;5023071;28;20045;-77
2023/08/10 11:02:45;;;;;;;0.32;0.32;;;22.20;74.60;;;;;;5024318;28;20120;-77
2023/08/10 11:05:15;;;;;;;0.40;0.40;;;22.20;74.50;;;;;;5051096;28;20053;-77
2023/08/10 11:07:44;;;;;;;0.40;0.40;;;22.30;74.60;;;;;;5007050;28;20111;-77
2023/08/10 11:10:11;;;;;;;0.30;0.30;;;22.20;74.60;;;;;;5024241;28;20054;-77
2023/08/10 11:12:41;;;;;;;0.40;0.40;;;22.20;74.60;;;;;;4988351;28;20030;-77
2023/08/10 11:15:09;;;;;;;0.20;0.20;;;22.20;74.50;;;;;;5021912;28;20060;-77
2023/08/10 11:17:43;;;;;;;0.50;0.50;;;22.30;74.60;;;;;;5024049;28;20095;-77
2023/08/10 11:20:12;;;;;;;0.40;0.40;;;22.30;74.50;;;;;;5022344;28;20048;-77
2023/08/10 11:22:38;;;;;;;0.45;0.30;;;22.30;74.50;;;;;;5023878;28;20084;-77
2023/08/10 11:25:12;;;;;;;0.40;0.40;;;22.30;74.40;;;;;;5023784;28;20053;-77
2023/08/10 11:27:39;;;;;;;0.40;0.40;;;22.30;74.40;;;;;;5024107;28;20394;-77
2023/08/10 11:30:05;;;;;;;0.35;0.30;;;22.30;74.40;;;;;;5021860;28;20045;-77
2023/08/10 11:32:31;;;;;;;0.40;0.40;;;22.30;74.40;;;;;;5023325;28;20049;-77
2023/08/10 11:34:59;;;;;;;0.30;0.30;;;22.30;74.40;;;;;;5008293;28;20099;-77
2023/08/10 11:37:33;;;;;;;0.30;0.30;;;22.30;74.40;;;;;;5023704;28;20029;-77
2023/08/10 11:40:12;;;;;;;0.30;0.30;;;22.30;74.40;;;;;;5011051;28;20045;-77
2023/08/10 11:42:47;;;;;;;0.40;0.40;;;22.30;74.40;;;;;;5026872;28;20037;-77
2023/08/10 11:45:19;;;;;;;0.25;0.25;;;22.30;74.40;;;;;;5010580;28;20653;-77
2023/08/10 11:47:46;;;;;;;0.30;0.30;;;22.30;74.40;;;;;;5009776;28;20030;-78
2023/08/10 11:50:13;;;;;;;0.38;0.38;;;22.40;74.30;;;;;;5025087;28;20456;-78
2023/08/10 11:52:39;;;;;;;0.20;0.20;;;22.30;74.20;;;;;;5026422;28;20120;-77
2023/08/10 11:55:12;;;;;;;0.20;0.20;;;22.40;75.20;;;;;;5027427;28;20116;-78
2023/08/10 11:57:38;;;;;;;0.43;0.43;;;22.30;75.10;;;;;;5025004;28;20129;-77
2023/08/10 12:00:23;;;;;;;0.30;0.30;;;22.40;74.20;;;;;;5007734;28;20507;-77
2023/08/10 12:03:03;;;;;;;0.35;0.35;;;22.40;74.30;;;;;;5026803;28;20554;-77
2023/08/10 12:05:35;;;;;;;0.32;0.32;;;22.40;74.30;;;;;;5028008;28;20116;-78
2023/08/10 12:08:02;;;;;;;0.40;0.40;;;22.40;74.30;;;;;;5010108;28;20529;-78
2023/08/10 12:10:39;;;;;;;0.50;0.50;;;22.40;74.20;;;;;;5026088;28;20037;-78
2023/08/10 12:13:06;;;;;;;0.30;0.30;;;22.40;74.20;;;;;;5016727;28;20104;-77
2023/08/10 12:15:32;;;;;;;0.50;0.50;;;22.40;74.20;;;;;;5027394;28;20048;-77
2023/08/10 12:17:58;;;;;;;0.30;0.30;;;22.40;74.20;;;;;;5028007;28;20057;-77
2023/08/10 12:20:24;;;;;;;0.20;0.20;;;22.40;74.20;;;;;;5042976;28;20053;-77
2023/08/10 12:22:50;;;;;;;0.30;0.30;;;22.40;74.30;;;;;;5010385;28;20083;-78
2023/08/10 12:25:16;;;;;;;0.30;0.30;;;22.40;74.20;;;;;;5026339;28;20053;-78
2023/08/10 12:27:41;;;;;;;0.40;0.40;;;22.40;74.30;;;;;;5024838;28;20065;-78
2023/08/10 12:30:09;;;;;;;0.30;0.30;;;22.40;74.30;;;;;;5006632;28;20038;-78
2023/08/10 12:32:34;;;;;;;0.28;0.28;;;22.40;74.20;;;;;;5009884;28;20042;-78
2023/08/10 12:35:00;;;;;;;0.47;0.47;;;22.40;74.20;;;;;;5025339;28;20044;-77
2023/08/10 12:37:26;;;;;;;0.30;0.30;;;22.40;74.20;;;;;;5027179;28;20099;-78
2023/08/10 12:39:53;;;;;;;0.25;0.25;;;22.40;74.20;;;;;;5010378;28;20037;-78
2023/08/10 12:42:18;;;;;;;0.30;0.30;;;22.40;74.20;;;;;;5026430;28;20060;-78
2023/08/10 12:44:44;;;;;;;0.30;0.30;;;22.50;74.30;;;;;;5025327;28;20507;-78